METAR stanice u blizini

 

LYBE - Beograd / Surčin, Srbija
Ažurirano: 11/12/2018 23:30
Mostly Cloudy
Mostly Cloudy
 Pravac vetra ZJZ
Vetar: ZJZ 9 km/h
Temperatura: 2°C
Osećaj hladnoće: -1°C
Tačka rose: 1°C
Vlažnost: 93%
Pritisak: 1018 hPa
Oblaci: Mostly Cloudy
Vidljivost: 10 km
Cloud details: Mostly Cloudy 1219 m
2018/12/11 22:30 LYBE 112230Z 25005KT 9999 BKN040 02/01 Q1018 NOSIG
LYBT - Beograd / Batajnica, Srbija
Ažurirano: 11/12/2018 23:30
Slaba kiša, Delimično oblačno
Slaba kiša, Delimično oblačno
 Pravac vetra JJZ
Vetar: JJZ 7 km/h
Temperatura: 1°C
Osećaj hladnoće: -2°C
Tačka rose: 1°C
Vlažnost: 100%
Pritisak: 1018 hPa
Pregled: Light Rain
Oblaci: Partly Cloudy
Vidljivost: 6 km
Cloud details: Partly Cloudy 1219 m
2018/12/11 22:30 LYBT 112230Z 21004KT 190V250 6000 -RA SCT040 01/01 Q1018 NOSIG
LYVR - Vršac, Srbija
Ažurirano: 11/12/2018 23:30
Slaba kiša, Pretežno oblačno
Slaba kiša, Pretežno oblačno
 Pravac vetra JZ
Vetar: JZ 7 km/h
Temperatura: 2°C
Osećaj hladnoće: 0°C
Tačka rose: 1°C
Vlažnost: 93%
Pritisak: 1018 hPa
Pregled: Light Rain
Oblaci: Mostly Cloudy
Vidljivost: 10 km
Cloud details: Mostly Cloudy 396 m
2018/12/11 22:30 LYVR 112230Z 23004KT 200V260 9999 -RA BKN013 02/01 Q1018 NOSIG
 
LYKV - Lađevci, Srbija
Ažurirano: 11/12/2018 23:30
Partly Cloudy
Partly Cloudy
 Pravac vetra SSI
Vetar: SSI 4 km/h
Temperatura: 0°C
Tačka rose: 0°C
Vlažnost: 100%
Pritisak: 1018 hPa
Oblaci: Partly Cloudy
Vidljivost: 10 km
Cloud details: Partly Cloudy 1006 m
2018/12/11 22:30 LYKV 112230Z 03002KT 9999 SCT033 00/00 Q1018 NOSIG
LYNI - Niš, Srbija
Ažurirano: 11/12/2018 23:30
Mostly Cloudy
Mostly Cloudy
 Pravac vetra varies
Vetar: varies 4 km/h
Temperatura: 0°C
Tačka rose: -2°C
Vlažnost: 87%
Pritisak: 1018 hPa
Oblaci: Mostly Cloudy
Vidljivost: 8 km
Cloud details: Mostly Cloudy 1128 m
2018/12/11 22:30 LYNI 112230Z VRB02KT 8000 BKN037 00/M02 Q1018 NOSIG
BKPR - Priština, Srbija
Ažurirano: 11/12/2018 23:30
Partly Cloudy
Partly Cloudy
 Pravac vetra calm
Vetar: Tišina
Temperatura: -3°C
Tačka rose: -6°C
Vlažnost: 80%
Pritisak: 1017 hPa
Oblaci: Partly Cloudy
Vidljivost: 10 km
Cloud details: Partly Cloudy 2438 m
2018/12/11 22:30 BKPR 112230Z 00000KT 9999 SCT080 M03/M06 Q1017 NOSIG RMK 17010095
 
LHPP - Pecs / Pogany, Hungary
Ažurirano: 11/12/2018 17:45
NOT Current
Oblačno
Oblačno
 Pravac vetra ZJZ
Vetar: ZJZ 4 km/h
Temperatura: 3°C
Tačka rose: -2°C
Vlažnost: 70%
Pritisak: 1017 hPa
Oblaci: Oblačno
Vidljivost: 10 km
Cloud details: Few Clouds 488 m
Oblačno 2530 m
2018/12/11 16:45 LHPP 111645Z 25002KT 9999 FEW016 OVC083 03/M02 Q1017
LHUD - Szeged, Hungary
Ažurirano: 11/12/2018 22:45
Vedro
Vedro
 Pravac vetra Z
Vetar: Z 20 km/h
Temperatura: 3°C
Osećaj hladnoće: -2°C
Tačka rose: 1°C
Vlažnost: 87%
Pritisak: 1017 hPa
Pregled: Vedro
Vidljivost: greater than 10 km
2018/12/11 21:45 LHUD 112145Z 27011KT CAVOK 03/01 Q1017 RERA
LRTR - Timisoara, Romania
Ažurirano: 11/12/2018 23:30
Light snow, Oblačno
Light snow, Oblačno
 Pravac vetra JZ
Vetar: JZ 6 km/h
Temperatura: 1°C
Tačka rose: 1°C
Vlažnost: 100%
Pritisak: 1016 hPa
Pregled: Light Snow
Oblaci: Oblačno
Vidljivost: 6 km
Cloud details: Partly Cloudy 122 m
Mostly Cloudy 396 m
Oblačno 762 m
2018/12/11 22:30 LRTR 112230Z 22003KT 6000 -SN SCT004 BKN013 OVC025 01/01 Q1016 R11/190095
 
LRCV - Craiova, Romania
Ažurirano: 11/12/2018 23:30
Vedro
Vedro
 Pravac vetra ZSZ
Vetar: ZSZ 6 km/h
Temperatura: 1°C
Tačka rose: -1°C
Vlažnost: 87%
Pritisak: 1015 hPa
Pregled: Vedro
Vidljivost: greater than 10 km
2018/12/11 22:30 LRCV 112230Z 30003KT CAVOK 01/M01 Q1015 R09/19//95
LBSF - Sofia, Bulgaria
Ažurirano: 11/12/2018 23:30
Oblačno
Oblačno
 Pravac vetra SSZ
Vetar: SSZ 7 km/h
Temperatura: 0°C
Osećaj hladnoće: -3°C
Tačka rose: -4°C
Vlažnost: 75%
Pritisak: 1015 hPa
Oblaci: Oblačno
Vidljivost: 10 km
Cloud details: Oblačno 1646 m
2018/12/11 22:30 LBSF 112230Z 33004KT 290V020 9999 OVC054 M00/M04 Q1015 NOSIG
LWSK - Skoplje, Makedonija
Ažurirano: 11/12/2018 23:30
Few Clouds
Few Clouds
 Pravac vetra calm
Vetar: Tišina
Temperatura: -3°C
Tačka rose: -5°C
Vlažnost: 86%
Pritisak: 1019 hPa
Oblaci: Few Clouds
Vidljivost: 10 km
Cloud details: Few Clouds 2134 m
2018/12/11 22:30 LWSK 112230Z 00000KT 9999 FEW070 M03/M05 Q1019 NOSIG
 
LYPG - Podgorica, Crna Gora
Ažurirano: 11/12/2018 23:30
Vedro
Vedro
 Pravac vetra SSZ
Vetar: SSZ 13 km/h
Temperatura: 3°C
Osećaj hladnoće: -1°C
Tačka rose: -7°C
Vlažnost: 48%
Pritisak: 1019 hPa
Pregled: Vedro
Vidljivost: greater than 10 km
2018/12/11 22:30 LYPG 112230Z 34007KT CAVOK 03/M07 Q1019 NOSIG
LQSA - Sarajevo, Bosna i Hercegovina
Ažurirano: 11/12/2018 23:00
Oblačno
Oblačno
 Pravac vetra calm
Vetar: Tišina
Temperatura: 0°C
Tačka rose: -1°C
Vlažnost: 93%
Pritisak: 1018 hPa
Oblaci: Oblačno
Vidljivost: 7 km
Cloud details: Oblačno 366 m
2018/12/11 22:00 LQSA 112200Z 00000KT 7000 OVC012 M00/M01 Q1018
LDOS - Osijek, Hrvatksa
Ažurirano: 11/12/2018 23:30
Vedro
Vedro
 Pravac vetra JZ
Vetar: JZ 17 km/h
Temperatura: 3°C
Osećaj hladnoće: -1°C
Tačka rose: 0°C
Vlažnost: 81%
Pritisak: 1017 hPa
Pregled: Vedro
Vidljivost: greater than 10 km
2018/12/11 22:30 LDOS 112230Z 22009KT CAVOK 03/00 Q1017